sensor_id;sensor_type;location;lat;lon;timestamp;temperature;humidity
31113;DHT22;17763;48.730;9.136;2023-04-03T00:01:06;3.00;99.90
31113;DHT22;17763;48.730;9.136;2023-04-03T00:03:32;2.90;99.90
31113;DHT22;17763;48.730;9.136;2023-04-03T00:05:58;2.80;99.90
31113;DHT22;17763;48.730;9.136;2023-04-03T00:08:34;2.90;99.90
31113;DHT22;17763;48.730;9.136;2023-04-03T00:11:01;2.90;99.90
31113;DHT22;17763;48.730;9.136;2023-04-03T00:13:27;2.90;99.90
31113;DHT22;17763;48.730;9.136;2023-04-03T00:15:53;2.80;99.90
31113;DHT22;17763;48.730;9.136;2023-04-03T00:18:21;2.80;99.90
31113;DHT22;17763;48.730;9.136;2023-04-03T00:20:51;2.90;99.90
31113;DHT22;17763;48.730;9.136;2023-04-03T00:23:17;2.80;99.90
31113;DHT22;17763;48.730;9.136;2023-04-03T00:25:43;2.80;99.90
31113;DHT22;17763;48.730;9.136;2023-04-03T00:28:14;2.80;99.90
31113;DHT22;17763;48.730;9.136;2023-04-03T00:30:40;2.80;99.90
31113;DHT22;17763;48.730;9.136;2023-04-03T00:33:05;2.80;99.90
31113;DHT22;17763;48.730;9.136;2023-04-03T00:35:31;3.00;99.90
31113;DHT22;17763;48.730;9.136;2023-04-03T00:37:57;2.80;99.90
31113;DHT22;17763;48.730;9.136;2023-04-03T00:40:27;2.80;99.90
31113;DHT22;17763;48.730;9.136;2023-04-03T00:43:00;2.80;99.90
31113;DHT22;17763;48.730;9.136;2023-04-03T00:45:36;2.80;99.90
31113;DHT22;17763;48.730;9.136;2023-04-03T00:48:06;2.70;99.90
31113;DHT22;17763;48.730;9.136;2023-04-03T00:50:36;2.70;99.90
31113;DHT22;17763;48.730;9.136;2023-04-03T00:53:04;2.70;99.90
31113;DHT22;17763;48.730;9.136;2023-04-03T00:55:32;2.70;99.90
31113;DHT22;17763;48.730;9.136;2023-04-03T00:58:00;2.70;99.90
31113;DHT22;17763;48.730;9.136;2023-04-03T01:00:26;2.70;99.90
31113;DHT22;17763;48.730;9.136;2023-04-03T01:02:54;2.80;99.90
31113;DHT22;17763;48.730;9.136;2023-04-03T01:05:21;2.70;99.90
31113;DHT22;17763;48.730;9.136;2023-04-03T01:07:47;2.70;99.90
31113;DHT22;17763;48.730;9.136;2023-04-03T01:10:15;2.70;99.90
31113;DHT22;17763;48.730;9.136;2023-04-03T01:12:46;2.90;99.90
31113;DHT22;17763;48.730;9.136;2023-04-03T01:15:24;2.70;99.90
31113;DHT22;17763;48.730;9.136;2023-04-03T01:17:54;2.70;99.90
31113;DHT22;17763;48.730;9.136;2023-04-03T01:25:42;2.60;99.90
31113;DHT22;17763;48.730;9.136;2023-04-03T01:28:12;2.70;99.90
31113;DHT22;17763;48.730;9.136;2023-04-03T01:30:49;2.60;99.90
31113;DHT22;17763;48.730;9.136;2023-04-03T01:33:16;2.70;99.90
31113;DHT22;17763;48.730;9.136;2023-04-03T01:35:42;2.60;99.90
31113;DHT22;17763;48.730;9.136;2023-04-03T01:38:07;2.60;99.90
31113;DHT22;17763;48.730;9.136;2023-04-03T01:40:36;2.60;99.90
31113;DHT22;17763;48.730;9.136;2023-04-03T01:43:02;2.60;99.90
31113;DHT22;17763;48.730;9.136;2023-04-03T01:45:30;2.60;99.90
31113;DHT22;17763;48.730;9.136;2023-04-03T01:47:59;2.70;99.90
31113;DHT22;17763;48.730;9.136;2023-04-03T01:50:29;2.60;99.90
31113;DHT22;17763;48.730;9.136;2023-04-03T01:52:57;2.60;99.90
31113;DHT22;17763;48.730;9.136;2023-04-03T01:55:25;2.60;99.90
31113;DHT22;17763;48.730;9.136;2023-04-03T01:57:51;2.60;99.90
31113;DHT22;17763;48.730;9.136;2023-04-03T02:00:22;2.60;99.90
31113;DHT22;17763;48.730;9.136;2023-04-03T02:02:51;2.60;99.90
31113;DHT22;17763;48.730;9.136;2023-04-03T02:05:16;2.60;99.90
31113;DHT22;17763;48.730;9.136;2023-04-03T02:07:42;2.60;99.90
31113;DHT22;17763;48.730;9.136;2023-04-03T02:10:08;2.50;99.90
31113;DHT22;17763;48.730;9.136;2023-04-03T02:12:36;2.50;99.90
31113;DHT22;17763;48.730;9.136;2023-04-03T02:15:02;2.50;99.90
31113;DHT22;17763;48.730;9.136;2023-04-03T02:17:28;2.50;99.90
31113;DHT22;17763;48.730;9.136;2023-04-03T02:19:54;2.50;99.90
31113;DHT22;17763;48.730;9.136;2023-04-03T02:22:22;2.50;99.90
31113;DHT22;17763;48.730;9.136;2023-04-03T02:24:56;2.50;99.90
31113;DHT22;17763;48.730;9.136;2023-04-03T02:27:22;2.50;99.90
31113;DHT22;17763;48.730;9.136;2023-04-03T02:29:47;2.50;99.90
31113;DHT22;17763;48.730;9.136;2023-04-03T02:32:13;2.50;99.90
31113;DHT22;17763;48.730;9.136;2023-04-03T02:34:41;2.50;99.90
31113;DHT22;17763;48.730;9.136;2023-04-03T02:37:06;2.50;99.90
31113;DHT22;17763;48.730;9.136;2023-04-03T02:39:32;2.50;99.90
31113;DHT22;17763;48.730;9.136;2023-04-03T02:42:00;2.50;99.90
31113;DHT22;17763;48.730;9.136;2023-04-03T02:44:26;2.60;99.90
31113;DHT22;17763;48.730;9.136;2023-04-03T02:46:54;2.50;99.90
31113;DHT22;17763;48.730;9.136;2023-04-03T02:49:20;2.50;99.90
31113;DHT22;17763;48.730;9.136;2023-04-03T02:51:46;2.50;99.90
31113;DHT22;17763;48.730;9.136;2023-04-03T02:54:16;2.50;99.90
31113;DHT22;17763;48.730;9.136;2023-04-03T02:56:45;2.50;99.90
31113;DHT22;17763;48.730;9.136;2023-04-03T02:59:13;2.50;99.90
31113;DHT22;17763;48.730;9.136;2023-04-03T03:01:44;2.50;99.90
31113;DHT22;17763;48.730;9.136;2023-04-03T03:04:09;2.50;99.90
31113;DHT22;17763;48.730;9.136;2023-04-03T03:06:37;2.50;99.90
31113;DHT22;17763;48.730;9.136;2023-04-03T03:09:04;2.40;99.90
31113;DHT22;17763;48.730;9.136;2023-04-03T03:11:33;2.40;99.90
31113;DHT22;17763;48.730;9.136;2023-04-03T03:13:59;2.50;99.90
31113;DHT22;17763;48.730;9.136;2023-04-03T03:16:27;2.50;99.90
31113;DHT22;17763;48.730;9.136;2023-04-03T03:18:53;2.50;99.90
31113;DHT22;17763;48.730;9.136;2023-04-03T03:21:19;2.40;99.90
31113;DHT22;17763;48.730;9.136;2023-04-03T03:23:46;2.50;99.90
31113;DHT22;17763;48.730;9.136;2023-04-03T03:26:17;2.40;99.90
31113;DHT22;17763;48.730;9.136;2023-04-03T03:28:45;2.50;99.90
31113;DHT22;17763;48.730;9.136;2023-04-03T03:31:11;2.40;99.90
31113;DHT22;17763;48.730;9.136;2023-04-03T03:33:37;2.40;99.90
31113;DHT22;17763;48.730;9.136;2023-04-03T03:36:03;2.40;99.90
31113;DHT22;17763;48.730;9.136;2023-04-03T03:38:37;2.40;99.90
31113;DHT22;17763;48.730;9.136;2023-04-03T03:41:03;2.40;99.90
31113;DHT22;17763;48.730;9.136;2023-04-03T03:43:31;2.40;99.90
31113;DHT22;17763;48.730;9.136;2023-04-03T03:46:00;2.40;99.90
31113;DHT22;17763;48.730;9.136;2023-04-03T03:48:33;2.40;99.90
31113;DHT22;17763;48.730;9.136;2023-04-03T03:50:59;2.40;99.90
31113;DHT22;17763;48.730;9.136;2023-04-03T03:53:29;2.50;99.90
31113;DHT22;17763;48.730;9.136;2023-04-03T03:55:55;2.40;99.90
31113;DHT22;17763;48.730;9.136;2023-04-03T03:58:23;2.40;99.90
31113;DHT22;17763;48.730;9.136;2023-04-03T04:00:49;2.40;99.90
31113;DHT22;17763;48.730;9.136;2023-04-03T04:03:14;2.40;99.90
31113;DHT22;17763;48.730;9.136;2023-04-03T04:05:43;2.30;99.90
31113;DHT22;17763;48.730;9.136;2023-04-03T04:08:08;2.40;99.90
31113;DHT22;17763;48.730;9.136;2023-04-03T04:10:35;2.30;99.90
31113;DHT22;17763;48.730;9.136;2023-04-03T04:13:05;2.40;99.90
31113;DHT22;17763;48.730;9.136;2023-04-03T04:15:30;2.40;99.90
31113;DHT22;17763;48.730;9.136;2023-04-03T04:17:56;2.40;99.90
31113;DHT22;17763;48.730;9.136;2023-04-03T04:20:25;2.40;99.90
31113;DHT22;17763;48.730;9.136;2023-04-03T04:22:51;2.40;99.90
31113;DHT22;17763;48.730;9.136;2023-04-03T04:25:16;2.40;99.90
31113;DHT22;17763;48.730;9.136;2023-04-03T04:27:44;2.40;99.90
31113;DHT22;17763;48.730;9.136;2023-04-03T04:30:10;2.40;99.90
31113;DHT22;17763;48.730;9.136;2023-04-03T04:32:38;2.40;99.90
31113;DHT22;17763;48.730;9.136;2023-04-03T04:35:06;2.40;99.90
31113;DHT22;17763;48.730;9.136;2023-04-03T04:37:32;2.50;99.90
31113;DHT22;17763;48.730;9.136;2023-04-03T04:39:58;2.50;99.90
31113;DHT22;17763;48.730;9.136;2023-04-03T04:42:24;2.50;99.90
31113;DHT22;17763;48.730;9.136;2023-04-03T04:44:52;2.50;99.90
31113;DHT22;17763;48.730;9.136;2023-04-03T04:47:21;2.60;99.90
31113;DHT22;17763;48.730;9.136;2023-04-03T04:49:46;2.50;99.90
31113;DHT22;17763;48.730;9.136;2023-04-03T04:52:13;2.60;99.90
31113;DHT22;17763;48.730;9.136;2023-04-03T04:54:38;2.60;99.90
31113;DHT22;17763;48.730;9.136;2023-04-03T04:57:04;2.60;99.90
31113;DHT22;17763;48.730;9.136;2023-04-03T04:59:32;2.60;99.90
31113;DHT22;17763;48.730;9.136;2023-04-03T05:01:58;2.50;99.90
31113;DHT22;17763;48.730;9.136;2023-04-03T05:04:24;2.50;99.90
31113;DHT22;17763;48.730;9.136;2023-04-03T05:06:49;2.50;99.90
31113;DHT22;17763;48.730;9.136;2023-04-03T05:09:17;2.50;99.90
31113;DHT22;17763;48.730;9.136;2023-04-03T05:11:45;2.50;99.90
31113;DHT22;17763;48.730;9.136;2023-04-03T05:14:11;2.60;99.90
31113;DHT22;17763;48.730;9.136;2023-04-03T05:16:40;2.60;99.90
31113;DHT22;17763;48.730;9.136;2023-04-03T05:19:08;2.60;99.90
31113;DHT22;17763;48.730;9.136;2023-04-03T05:21:34;2.60;99.90
31113;DHT22;17763;48.730;9.136;2023-04-03T05:24:00;2.60;99.90
31113;DHT22;17763;48.730;9.136;2023-04-03T05:26:29;2.60;99.90
31113;DHT22;17763;48.730;9.136;2023-04-03T05:28:59;2.60;99.90
31113;DHT22;17763;48.730;9.136;2023-04-03T05:31:25;2.60;99.90
31113;DHT22;17763;48.730;9.136;2023-04-03T05:33:51;2.70;99.90
31113;DHT22;17763;48.730;9.136;2023-04-03T05:36:21;2.70;99.90
31113;DHT22;17763;48.730;9.136;2023-04-03T05:38:50;2.70;99.90
31113;DHT22;17763;48.730;9.136;2023-04-03T05:41:18;2.80;99.90
31113;DHT22;17763;48.730;9.136;2023-04-03T05:43:46;2.80;99.90
31113;DHT22;17763;48.730;9.136;2023-04-03T05:46:17;2.80;99.90
31113;DHT22;17763;48.730;9.136;2023-04-03T05:48:43;2.80;99.90
31113;DHT22;17763;48.730;9.136;2023-04-03T05:51:33;2.80;99.90
31113;DHT22;17763;48.730;9.136;2023-04-03T05:54:06;2.80;99.90
31113;DHT22;17763;48.730;9.136;2023-04-03T05:56:32;2.70;99.90
31113;DHT22;17763;48.730;9.136;2023-04-03T05:58:58;2.70;99.90
31113;DHT22;17763;48.730;9.136;2023-04-03T06:01:24;2.80;99.90
31113;DHT22;17763;48.730;9.136;2023-04-03T06:03:49;2.70;99.90
31113;DHT22;17763;48.730;9.136;2023-04-03T06:06:15;2.90;99.90
31113;DHT22;17763;48.730;9.136;2023-04-03T06:08:41;2.90;99.90
31113;DHT22;17763;48.730;9.136;2023-04-03T06:11:07;3.10;99.90
31113;DHT22;17763;48.730;9.136;2023-04-03T06:13:34;2.80;99.90
31113;DHT22;17763;48.730;9.136;2023-04-03T06:16:00;2.70;99.90
31113;DHT22;17763;48.730;9.136;2023-04-03T06:18:27;2.70;99.90
31113;DHT22;17763;48.730;9.136;2023-04-03T06:20:56;2.60;99.90
31113;DHT22;17763;48.730;9.136;2023-04-03T06:23:24;2.60;99.90
31113;DHT22;17763;48.730;9.136;2023-04-03T06:25:49;2.60;99.90
31113;DHT22;17763;48.730;9.136;2023-04-03T06:28:15;2.60;99.90
31113;DHT22;17763;48.730;9.136;2023-04-03T06:30:41;2.70;99.90
31113;DHT22;17763;48.730;9.136;2023-04-03T06:33:08;2.70;99.90
31113;DHT22;17763;48.730;9.136;2023-04-03T06:35:39;2.80;99.90
31113;DHT22;17763;48.730;9.136;2023-04-03T06:38:05;2.80;99.90
31113;DHT22;17763;48.730;9.136;2023-04-03T06:40:35;2.90;99.90
31113;DHT22;17763;48.730;9.136;2023-04-03T06:43:01;2.90;99.90
31113;DHT22;17763;48.730;9.136;2023-04-03T06:45:27;3.00;99.90
31113;DHT22;17763;48.730;9.136;2023-04-03T06:47:53;3.00;99.90
31113;DHT22;17763;48.730;9.136;2023-04-03T06:50:19;3.10;99.90
31113;DHT22;17763;48.730;9.136;2023-04-03T06:52:47;3.10;99.90
31113;DHT22;17763;48.730;9.136;2023-04-03T06:55:13;3.10;99.90
31113;DHT22;17763;48.730;9.136;2023-04-03T06:57:38;3.20;99.90
31113;DHT22;17763;48.730;9.136;2023-04-03T07:00:07;3.10;99.90
31113;DHT22;17763;48.730;9.136;2023-04-03T07:02:35;3.10;99.90
31113;DHT22;17763;48.730;9.136;2023-04-03T07:05:03;3.20;99.90
31113;DHT22;17763;48.730;9.136;2023-04-03T07:07:31;3.20;99.90
31113;DHT22;17763;48.730;9.136;2023-04-03T07:09:59;3.30;99.90
31113;DHT22;17763;48.730;9.136;2023-04-03T07:12:27;3.40;99.90
31113;DHT22;17763;48.730;9.136;2023-04-03T07:14:53;3.30;99.90
31113;DHT22;17763;48.730;9.136;2023-04-03T07:17:21;3.40;99.90
31113;DHT22;17763;48.730;9.136;2023-04-03T07:19:46;3.40;99.90
31113;DHT22;17763;48.730;9.136;2023-04-03T07:22:12;3.40;99.90
31113;DHT22;17763;48.730;9.136;2023-04-03T07:24:38;3.50;99.90
31113;DHT22;17763;48.730;9.136;2023-04-03T07:27:04;3.70;99.90
31113;DHT22;17763;48.730;9.136;2023-04-03T07:29:30;3.80;99.90
31113;DHT22;17763;48.730;9.136;2023-04-03T07:31:56;3.80;99.90
31113;DHT22;17763;48.730;9.136;2023-04-03T07:34:22;3.90;99.90
31113;DHT22;17763;48.730;9.136;2023-04-03T07:36:48;3.80;99.90
31113;DHT22;17763;48.730;9.136;2023-04-03T07:39:13;3.90;99.90
31113;DHT22;17763;48.730;9.136;2023-04-03T07:41:39;4.10;99.90
31113;DHT22;17763;48.730;9.136;2023-04-03T07:44:05;4.20;99.90
31113;DHT22;17763;48.730;9.136;2023-04-03T07:46:31;4.00;99.90
31113;DHT22;17763;48.730;9.136;2023-04-03T07:48:59;4.00;99.90
31113;DHT22;17763;48.730;9.136;2023-04-03T07:51:25;4.10;99.90
31113;DHT22;17763;48.730;9.136;2023-04-03T07:53:52;4.30;99.90
31113;DHT22;17763;48.730;9.136;2023-04-03T07:56:18;4.10;99.90
31113;DHT22;17763;48.730;9.136;2023-04-03T07:58:43;4.20;99.90
31113;DHT22;17763;48.730;9.136;2023-04-03T08:01:11;4.40;99.90
31113;DHT22;17763;48.730;9.136;2023-04-03T08:03:38;4.50;99.90
31113;DHT22;17763;48.730;9.136;2023-04-03T08:06:06;4.60;99.90
31113;DHT22;17763;48.730;9.136;2023-04-03T08:08:32;4.70;99.90
31113;DHT22;17763;48.730;9.136;2023-04-03T08:11:01;4.40;99.90
31113;DHT22;17763;48.730;9.136;2023-04-03T08:13:32;4.10;99.90
31113;DHT22;17763;48.730;9.136;2023-04-03T08:16:06;4.00;99.90
31113;DHT22;17763;48.730;9.136;2023-04-03T08:18:31;4.00;99.90
31113;DHT22;17763;48.730;9.136;2023-04-03T08:20:57;4.00;99.90
31113;DHT22;17763;48.730;9.136;2023-04-03T08:23:23;4.10;99.90
31113;DHT22;17763;48.730;9.136;2023-04-03T08:25:51;4.30;99.90
31113;DHT22;17763;48.730;9.136;2023-04-03T08:28:17;4.50;99.90
31113;DHT22;17763;48.730;9.136;2023-04-03T08:30:45;4.50;99.90
31113;DHT22;17763;48.730;9.136;2023-04-03T08:33:11;4.70;99.90
31113;DHT22;17763;48.730;9.136;2023-04-03T08:35:39;4.80;99.90
31113;DHT22;17763;48.730;9.136;2023-04-03T08:38:06;5.00;99.90
31113;DHT22;17763;48.730;9.136;2023-04-03T08:40:32;5.10;99.90
31113;DHT22;17763;48.730;9.136;2023-04-03T08:45:53;4.80;99.90
31113;DHT22;17763;48.730;9.136;2023-04-03T08:48:26;4.70;99.90
31113;DHT22;17763;48.730;9.136;2023-04-03T08:51:17;4.60;99.90
31113;DHT22;17763;48.730;9.136;2023-04-03T08:54:27;4.40;99.90
31113;DHT22;17763;48.730;9.136;2023-04-03T08:56:43;4.50;99.90
31113;DHT22;17763;48.730;9.136;2023-04-03T08:59:14;4.80;99.90
31113;DHT22;17763;48.730;9.136;2023-04-03T09:01:45;4.70;99.90
31113;DHT22;17763;48.730;9.136;2023-04-03T09:04:13;4.70;99.90
31113;DHT22;17763;48.730;9.136;2023-04-03T09:06:40;4.60;99.90
31113;DHT22;17763;48.730;9.136;2023-04-03T09:18:00;4.60;99.90
31113;DHT22;17763;48.730;9.136;2023-04-03T09:23:24;4.70;99.90
31113;DHT22;17763;48.730;9.136;2023-04-03T09:26:02;4.80;99.90
31113;DHT22;17763;48.730;9.136;2023-04-03T09:28:34;4.80;99.90
31113;DHT22;17763;48.730;9.136;2023-04-03T09:31:03;5.00;99.90
31113;DHT22;17763;48.730;9.136;2023-04-03T09:33:35;5.20;99.90
31113;DHT22;17763;48.730;9.136;2023-04-03T09:36:01;5.40;99.90
31113;DHT22;17763;48.730;9.136;2023-04-03T09:38:27;5.40;99.90
31113;DHT22;17763;48.730;9.136;2023-04-03T09:41:19;5.30;98.60
31113;DHT22;17763;48.730;9.136;2023-04-03T09:43:53;5.20;97.10
31113;DHT22;17763;48.730;9.136;2023-04-03T09:46:32;5.20;98.20
31113;DHT22;17763;48.730;9.136;2023-04-03T09:49:00;5.40;98.80
31113;DHT22;17763;48.730;9.136;2023-04-03T09:51:28;5.70;97.90
31113;DHT22;17763;48.730;9.136;2023-04-03T09:53:57;5.90;95.70
31113;DHT22;17763;48.730;9.136;2023-04-03T09:56:32;6.00;95.50
31113;DHT22;17763;48.730;9.136;2023-04-03T10:01:30;6.20;95.00
31113;DHT22;17763;48.730;9.136;2023-04-03T10:04:16;6.00;94.60
31113;DHT22;17763;48.730;9.136;2023-04-03T10:06:53;5.90;95.80
31113;DHT22;17763;48.730;9.136;2023-04-03T10:09:31;5.70;95.80
31113;DHT22;17763;48.730;9.136;2023-04-03T10:14:31;5.40;96.50
31113;DHT22;17763;48.730;9.136;2023-04-03T10:20:18;5.30;96.50
31113;DHT22;17763;48.730;9.136;2023-04-03T10:26:21;5.00;98.00
31113;DHT22;17763;48.730;9.136;2023-04-03T10:31:50;5.00;95.90
31113;DHT22;17763;48.730;9.136;2023-04-03T10:45:20;5.60;92.40
31113;DHT22;17763;48.730;9.136;2023-04-03T10:48:09;5.60;92.50
31113;DHT22;17763;48.730;9.136;2023-04-03T10:54:05;5.50;92.40
31113;DHT22;17763;48.730;9.136;2023-04-03T10:59:28;5.40;93.60
31113;DHT22;17763;48.730;9.136;2023-04-03T11:02:00;5.40;93.90
31113;DHT22;17763;48.730;9.136;2023-04-03T11:04:33;5.30;95.10
31113;DHT22;17763;48.730;9.136;2023-04-03T11:07:10;5.00;95.80
31113;DHT22;17763;48.730;9.136;2023-04-03T11:09:43;4.90;95.90
31113;DHT22;17763;48.730;9.136;2023-04-03T11:12:15;4.90;96.50
31113;DHT22;17763;48.730;9.136;2023-04-03T11:14:45;5.00;96.40
31113;DHT22;17763;48.730;9.136;2023-04-03T11:22:31;5.10;94.90
31113;DHT22;17763;48.730;9.136;2023-04-03T11:25:13;4.90;95.50
31113;DHT22;17763;48.730;9.136;2023-04-03T11:27:44;5.00;95.50
31113;DHT22;17763;48.730;9.136;2023-04-03T11:36:26;5.60;92.20
31113;DHT22;17763;48.730;9.136;2023-04-03T11:38:57;5.50;91.80
31113;DHT22;17763;48.730;9.136;2023-04-03T11:41:29;5.30;91.50
31113;DHT22;17763;48.730;9.136;2023-04-03T11:43:59;5.20;91.90
31113;DHT22;17763;48.730;9.136;2023-04-03T11:47:43;5.20;91.70
31113;DHT22;17763;48.730;9.136;2023-04-03T11:50:03;5.40;91.70
31113;DHT22;17763;48.730;9.136;2023-04-03T12:08:46;5.30;90.50
31113;DHT22;17763;48.730;9.136;2023-04-03T12:19:46;5.00;90.40
31113;DHT22;17763;48.730;9.136;2023-04-03T12:24:31;5.00;90.70
31113;DHT22;17763;48.730;9.136;2023-04-03T12:46:45;5.10;89.70
31113;DHT22;17763;48.730;9.136;2023-04-03T12:51:47;5.10;90.20
31113;DHT22;17763;48.730;9.136;2023-04-03T12:54:35;4.90;88.70
31113;DHT22;17763;48.730;9.136;2023-04-03T12:57:24;4.90;90.00
31113;DHT22;17763;48.730;9.136;2023-04-03T12:59:51;5.00;90.30
31113;DHT22;17763;48.730;9.136;2023-04-03T13:02:24;5.10;86.80
31113;DHT22;17763;48.730;9.136;2023-04-03T13:04:53;5.30;86.30
31113;DHT22;17763;48.730;9.136;2023-04-03T13:07:33;5.60;87.30
31113;DHT22;17763;48.730;9.136;2023-04-03T13:12:56;6.20;79.90
31113;DHT22;17763;48.730;9.136;2023-04-03T13:15:28;6.00;81.70
31113;DHT22;17763;48.730;9.136;2023-04-03T13:17:54;5.80;83.50
31113;DHT22;17763;48.730;9.136;2023-04-03T13:20:28;5.80;83.90
31113;DHT22;17763;48.730;9.136;2023-04-03T13:25:28;5.60;82.40
31113;DHT22;17763;48.730;9.136;2023-04-03T13:27:55;5.60;85.00
31113;DHT22;17763;48.730;9.136;2023-04-03T13:30:32;5.60;81.80
31113;DHT22;17763;48.730;9.136;2023-04-03T13:33:01;5.70;82.50
31113;DHT22;17763;48.730;9.136;2023-04-03T13:38:21;6.10;81.30
31113;DHT22;17763;48.730;9.136;2023-04-03T13:40:50;6.10;79.10
31113;DHT22;17763;48.730;9.136;2023-04-03T13:43:25;6.00;78.40
31113;DHT22;17763;48.730;9.136;2023-04-03T13:48:22;6.30;80.50
31113;DHT22;17763;48.730;9.136;2023-04-03T13:50:56;6.40;77.40
31113;DHT22;17763;48.730;9.136;2023-04-03T13:53:22;6.30;77.30
31113;DHT22;17763;48.730;9.136;2023-04-03T13:58:26;6.50;77.60
31113;DHT22;17763;48.730;9.136;2023-04-03T14:04:16;6.30;76.60
31113;DHT22;17763;48.730;9.136;2023-04-03T14:06:34;6.20;76.40
31113;DHT22;17763;48.730;9.136;2023-04-03T14:08:59;6.30;74.60
31113;DHT22;17763;48.730;9.136;2023-04-03T14:11:30;6.30;73.80
31113;DHT22;17763;48.730;9.136;2023-04-03T14:14:02;6.40;73.60
31113;DHT22;17763;48.730;9.136;2023-04-03T14:16:38;6.50;75.70
31113;DHT22;17763;48.730;9.136;2023-04-03T14:19:04;6.40;73.80
31113;DHT22;17763;48.730;9.136;2023-04-03T14:21:32;6.10;75.50
31113;DHT22;17763;48.730;9.136;2023-04-03T14:23:58;6.10;76.20
31113;DHT22;17763;48.730;9.136;2023-04-03T14:26:25;5.80;76.30
31113;DHT22;17763;48.730;9.136;2023-04-03T14:28:54;5.70;76.60
31113;DHT22;17763;48.730;9.136;2023-04-03T14:31:22;5.50;76.80
31113;DHT22;17763;48.730;9.136;2023-04-03T14:33:48;5.50;78.20
31113;DHT22;17763;48.730;9.136;2023-04-03T14:36:17;5.50;77.30
31113;DHT22;17763;48.730;9.136;2023-04-03T14:38:44;5.60;77.20
31113;DHT22;17763;48.730;9.136;2023-04-03T14:41:12;5.60;77.60
31113;DHT22;17763;48.730;9.136;2023-04-03T14:43:44;5.40;78.20
31113;DHT22;17763;48.730;9.136;2023-04-03T14:46:14;5.30;77.30
31113;DHT22;17763;48.730;9.136;2023-04-03T14:48:43;5.20;77.10
31113;DHT22;17763;48.730;9.136;2023-04-03T14:51:14;5.30;77.50
31113;DHT22;17763;48.730;9.136;2023-04-03T14:53:44;5.60;79.10
31113;DHT22;17763;48.730;9.136;2023-04-03T14:56:23;6.10;78.10
31113;DHT22;17763;48.730;9.136;2023-04-03T14:59:04;6.60;73.80
31113;DHT22;17763;48.730;9.136;2023-04-03T15:01:35;6.80;72.40
31113;DHT22;17763;48.730;9.136;2023-04-03T15:04:00;7.00;69.80
31113;DHT22;17763;48.730;9.136;2023-04-03T15:06:26;6.80;69.90
31113;DHT22;17763;48.730;9.136;2023-04-03T15:08:54;6.50;71.20
31113;DHT22;17763;48.730;9.136;2023-04-03T15:11:23;6.40;71.70
31113;DHT22;17763;48.730;9.136;2023-04-03T15:13:48;6.30;72.70
31113;DHT22;17763;48.730;9.136;2023-04-03T15:16:22;6.30;72.50
31113;DHT22;17763;48.730;9.136;2023-04-03T15:18:50;6.00;72.40
31113;DHT22;17763;48.730;9.136;2023-04-03T15:21:26;6.00;74.30
31113;DHT22;17763;48.730;9.136;2023-04-03T15:23:51;6.10;74.20
31113;DHT22;17763;48.730;9.136;2023-04-03T15:26:20;6.20;73.40
31113;DHT22;17763;48.730;9.136;2023-04-03T15:28:46;6.20;71.10
31113;DHT22;17763;48.730;9.136;2023-04-03T15:31:14;6.10;71.00
31113;DHT22;17763;48.730;9.136;2023-04-03T15:33:40;6.00;71.60
31113;DHT22;17763;48.730;9.136;2023-04-03T15:36:06;5.90;71.40
31113;DHT22;17763;48.730;9.136;2023-04-03T15:38:32;5.80;71.00
31113;DHT22;17763;48.730;9.136;2023-04-03T15:41:00;5.90;72.40
31113;DHT22;17763;48.730;9.136;2023-04-03T15:43:28;6.00;70.60
31113;DHT22;17763;48.730;9.136;2023-04-03T15:45:57;6.10;70.20
31113;DHT22;17763;48.730;9.136;2023-04-03T15:48:24;5.90;69.60
31113;DHT22;17763;48.730;9.136;2023-04-03T15:50:50;5.70;68.40
31113;DHT22;17763;48.730;9.136;2023-04-03T15:53:15;5.50;68.00
31113;DHT22;17763;48.730;9.136;2023-04-03T15:55:42;5.50;70.00
31113;DHT22;17763;48.730;9.136;2023-04-03T15:58:08;5.40;71.90
31113;DHT22;17763;48.730;9.136;2023-04-03T16:00:35;5.30;70.70
31113;DHT22;17763;48.730;9.136;2023-04-03T16:03:08;5.10;71.20
31113;DHT22;17763;48.730;9.136;2023-04-03T16:05:39;5.00;72.60
31113;DHT22;17763;48.730;9.136;2023-04-03T16:08:06;5.10;71.70
31113;DHT22;17763;48.730;9.136;2023-04-03T16:10:33;5.40;71.80
31113;DHT22;17763;48.730;9.136;2023-04-03T16:12:59;5.80;71.10
31113;DHT22;17763;48.730;9.136;2023-04-03T16:15:26;6.00;71.40
31113;DHT22;17763;48.730;9.136;2023-04-03T16:17:52;6.10;67.70
31113;DHT22;17763;48.730;9.136;2023-04-03T16:20:20;6.20;66.70
31113;DHT22;17763;48.730;9.136;2023-04-03T16:22:47;6.60;68.10
31113;DHT22;17763;48.730;9.136;2023-04-03T16:25:13;6.90;67.70
31113;DHT22;17763;48.730;9.136;2023-04-03T16:27:39;6.80;65.60
31113;DHT22;17763;48.730;9.136;2023-04-03T16:30:06;6.70;65.50
31113;DHT22;17763;48.730;9.136;2023-04-03T16:32:32;6.60;67.30
31113;DHT22;17763;48.730;9.136;2023-04-03T16:34:59;6.40;66.00
31113;DHT22;17763;48.730;9.136;2023-04-03T16:37:25;6.50;66.30
31113;DHT22;17763;48.730;9.136;2023-04-03T16:39:51;6.40;68.30
31113;DHT22;17763;48.730;9.136;2023-04-03T16:42:16;6.30;65.90
31113;DHT22;17763;48.730;9.136;2023-04-03T16:44:42;6.20;65.70
31113;DHT22;17763;48.730;9.136;2023-04-03T16:47:11;6.10;65.00
31113;DHT22;17763;48.730;9.136;2023-04-03T16:49:39;5.90;64.90
31113;DHT22;17763;48.730;9.136;2023-04-03T16:52:05;5.70;65.00
31113;DHT22;17763;48.730;9.136;2023-04-03T16:54:33;5.60;66.90
31113;DHT22;17763;48.730;9.136;2023-04-03T16:56:59;5.40;65.40
31113;DHT22;17763;48.730;9.136;2023-04-03T16:59:27;5.30;66.20
31113;DHT22;17763;48.730;9.136;2023-04-03T17:01:53;5.30;65.80
31113;DHT22;17763;48.730;9.136;2023-04-03T17:04:21;5.30;66.60
31113;DHT22;17763;48.730;9.136;2023-04-03T17:06:47;5.30;67.70
31113;DHT22;17763;48.730;9.136;2023-04-03T17:09:13;5.30;67.20
31113;DHT22;17763;48.730;9.136;2023-04-03T17:11:40;5.30;68.10
31113;DHT22;17763;48.730;9.136;2023-04-03T17:14:06;5.30;69.80
31113;DHT22;17763;48.730;9.136;2023-04-03T17:16:34;5.30;69.20
31113;DHT22;17763;48.730;9.136;2023-04-03T17:19:03;5.40;67.90
31113;DHT22;17763;48.730;9.136;2023-04-03T17:21:29;5.40;67.80
31113;DHT22;17763;48.730;9.136;2023-04-03T17:24:04;5.40;68.10
31113;DHT22;17763;48.730;9.136;2023-04-03T17:26:34;5.40;67.90
31113;DHT22;17763;48.730;9.136;2023-04-03T17:29:05;5.40;68.60
31113;DHT22;17763;48.730;9.136;2023-04-03T17:31:34;5.30;68.30
31113;DHT22;17763;48.730;9.136;2023-04-03T17:33:59;5.20;68.80
31113;DHT22;17763;48.730;9.136;2023-04-03T17:36:29;5.10;69.30
31113;DHT22;17763;48.730;9.136;2023-04-03T17:38:55;5.10;69.20
31113;DHT22;17763;48.730;9.136;2023-04-03T17:41:23;5.00;68.80
31113;DHT22;17763;48.730;9.136;2023-04-03T17:43:51;4.90;68.20
31113;DHT22;17763;48.730;9.136;2023-04-03T17:46:24;4.80;68.80
31113;DHT22;17763;48.730;9.136;2023-04-03T17:48:51;4.80;69.50
31113;DHT22;17763;48.730;9.136;2023-04-03T17:51:20;4.70;70.60
31113;DHT22;17763;48.730;9.136;2023-04-03T17:53:46;4.70;70.00
31113;DHT22;17763;48.730;9.136;2023-04-03T17:56:19;4.70;71.20
31113;DHT22;17763;48.730;9.136;2023-04-03T17:58:47;4.70;70.10
31113;DHT22;17763;48.730;9.136;2023-04-03T18:01:36;4.70;71.30
31113;DHT22;17763;48.730;9.136;2023-04-03T18:04:03;4.70;72.50